createdAt,value
2022-08-03T00:01:40.889Z,59.50
2022-08-03T00:04:34.149Z,59.60
2022-08-03T00:07:20.855Z,59.60
2022-08-03T00:10:00.966Z,59.60
2022-08-03T00:12:47.865Z,59.50
2022-08-03T00:15:34.855Z,59.70
2022-08-03T00:18:22.061Z,59.60
2022-08-03T00:21:01.862Z,59.70
2022-08-03T00:23:51.342Z,59.70
2022-08-03T00:26:38.871Z,59.80
2022-08-03T00:29:25.851Z,59.60
2022-08-03T00:32:05.935Z,59.60
2022-08-03T00:34:57.818Z,59.60
2022-08-03T00:37:41.301Z,59.60
2022-08-03T00:40:28.859Z,59.50
2022-08-03T00:43:12.022Z,59.60
2022-08-03T00:45:58.869Z,59.70
2022-08-03T00:48:38.910Z,59.70
2022-08-03T00:51:27.877Z,60.50
2022-08-03T00:54:07.917Z,59.70
2022-08-03T00:56:59.843Z,59.60
2022-08-03T00:59:39.921Z,59.60
2022-08-03T01:02:26.857Z,59.60
2022-08-03T01:05:07.017Z,59.60
2022-08-03T01:07:59.861Z,59.60
2022-08-03T01:11:06.913Z,59.60
2022-08-03T01:14:18.781Z,59.50
2022-08-03T01:17:22.770Z,59.60
2022-08-03T01:20:22.887Z,59.60
2022-08-03T01:23:22.157Z,59.60
2022-08-03T01:26:35.890Z,59.60
2022-08-03T01:29:41.919Z,59.60
2022-08-03T01:33:02.618Z,59.60
2022-08-03T01:35:53.884Z,59.60
2022-08-03T01:38:37.916Z,59.60
2022-08-03T01:41:28.857Z,59.60
2022-08-03T01:44:29.379Z,59.80
2022-08-03T01:47:18.861Z,59.70
2022-08-03T01:50:00.936Z,59.60
2022-08-03T01:52:50.865Z,59.70
2022-08-03T01:55:33.190Z,59.70
2022-08-03T01:58:25.874Z,59.60
2022-08-03T02:01:08.042Z,59.70
2022-08-03T02:04:00.658Z,59.60
2022-08-03T02:07:00.542Z,59.70
2022-08-03T02:09:51.893Z,59.70
2022-08-03T02:12:37.074Z,59.60
2022-08-03T02:15:25.902Z,59.50
2022-08-03T02:18:07.934Z,59.60
2022-08-03T02:20:56.894Z,59.50
2022-08-03T02:23:37.950Z,59.60
2022-08-03T02:26:27.891Z,59.60
2022-08-03T02:29:12.479Z,59.50
2022-08-03T02:32:00.891Z,59.40
2022-08-03T02:34:42.946Z,59.50
2022-08-03T02:37:34.884Z,59.50
2022-08-03T02:40:16.962Z,59.40
2022-08-03T02:43:08.881Z,59.40
2022-08-03T02:45:52.990Z,59.30
2022-08-03T02:48:41.891Z,59.30
2022-08-03T02:51:24.937Z,59.20
2022-08-03T02:54:14.889Z,59.30
2022-08-03T02:56:55.950Z,59.20
2022-08-03T02:59:43.883Z,59.30
2022-08-03T03:02:26.054Z,59.30
2022-08-03T03:05:53.244Z,59.20
2022-08-03T03:08:17.604Z,59.30
2022-08-03T03:11:06.879Z,59.10
2022-08-03T03:13:49.967Z,59.10
2022-08-03T03:16:37.897Z,59.10
2022-08-03T03:19:20.946Z,59.10
2022-08-03T03:22:09.967Z,59.00
2022-08-03T03:24:57.875Z,59.00
2022-08-03T03:27:49.475Z,58.90
2022-08-03T03:30:31.985Z,58.90
2022-08-03T03:33:19.902Z,58.90
2022-08-03T03:36:07.886Z,58.90
2022-08-03T03:38:54.928Z,58.70
2022-08-03T03:41:34.891Z,58.70
2022-08-03T03:44:22.941Z,58.60
2022-08-03T03:47:05.911Z,58.70
2022-08-03T03:49:52.935Z,58.60
2022-08-03T03:52:32.892Z,58.70
2022-08-03T03:55:30.896Z,58.60
2022-08-03T03:58:11.413Z,58.60
2022-08-03T04:00:57.968Z,58.60
2022-08-03T04:03:44.881Z,58.50
2022-08-03T04:06:44.674Z,58.50
2022-08-03T04:09:49.885Z,58.50
2022-08-03T04:12:39.901Z,58.30
2022-08-03T04:15:40.047Z,58.20
2022-08-03T04:18:21.905Z,58.20
2022-08-03T04:21:05.918Z,58.20
2022-08-03T04:23:56.878Z,58.20
2022-08-03T04:26:52.322Z,58.20
2022-08-03T04:29:48.243Z,58.20
2022-08-03T04:32:29.676Z,58.10
2022-08-03T04:35:16.901Z,58.00
2022-08-03T04:38:08.980Z,58.00
2022-08-03T04:40:50.904Z,58.00
2022-08-03T04:43:41.819Z,58.00
2022-08-03T04:46:22.902Z,57.90
2022-08-03T04:49:11.260Z,57.90
2022-08-03T04:51:50.911Z,57.80
2022-08-03T04:54:51.910Z,58.70
2022-08-03T04:57:38.922Z,57.70
2022-08-03T05:00:26.902Z,57.60
2022-08-03T05:03:25.036Z,57.60
2022-08-03T05:06:12.035Z,58.50
2022-08-03T05:08:51.895Z,57.50
2022-08-03T05:11:38.911Z,57.50
2022-08-03T05:14:28.167Z,57.40
2022-08-03T05:17:15.971Z,57.40
2022-08-03T05:19:55.933Z,57.40
2022-08-03T05:22:42.904Z,57.30
2022-08-03T05:25:27.316Z,57.20
2022-08-03T05:28:13.909Z,57.10
2022-08-03T05:30:53.963Z,57.10
2022-08-03T05:33:40.897Z,57.10
2022-08-03T05:36:21.030Z,57.10
2022-08-03T05:39:07.932Z,57.10
2022-08-03T05:42:01.888Z,57.00
2022-08-03T05:44:48.925Z,56.90
2022-08-03T05:47:28.971Z,56.70
2022-08-03T05:50:17.012Z,56.70
2022-08-03T05:52:59.748Z,56.50
2022-08-03T05:55:45.950Z,56.60
2022-08-03T05:58:25.952Z,56.50
2022-08-03T06:01:17.147Z,56.50
2022-08-03T06:03:57.970Z,56.50
2022-08-03T06:06:44.913Z,56.40
2022-08-03T06:09:24.974Z,56.30
2022-08-03T06:12:31.907Z,56.30
2022-08-03T06:15:18.926Z,56.10
2022-08-03T06:18:02.001Z,56.10
2022-08-03T06:20:49.388Z,56.20
2022-08-03T06:23:52.970Z,56.20
2022-08-03T06:26:40.909Z,56.10
2022-08-03T06:29:21.429Z,56.00
2022-08-03T06:32:07.925Z,56.00
2022-08-03T06:34:48.954Z,56.00
2022-08-03T06:37:35.929Z,55.80
2022-08-03T06:40:32.827Z,55.80
2022-08-03T06:43:21.921Z,55.90
2022-08-03T06:46:01.965Z,55.90
2022-08-03T06:48:48.938Z,56.00
2022-08-03T06:52:05.527Z,56.20
2022-08-03T06:54:33.300Z,57.20
2022-08-03T06:57:20.930Z,56.00
2022-08-03T07:00:08.544Z,55.80
2022-08-03T07:02:58.543Z,55.50
2022-08-03T07:05:37.966Z,55.40
2022-08-03T07:08:33.786Z,55.20
2022-08-03T07:11:13.969Z,55.20
2022-08-03T07:14:00.932Z,55.20
2022-08-03T07:16:41.369Z,55.30
2022-08-03T07:19:27.923Z,55.20
2022-08-03T07:22:08.763Z,55.00
2022-08-03T07:24:54.941Z,54.90
2022-08-03T07:27:41.944Z,54.70
2022-08-03T07:30:28.996Z,54.90
2022-08-03T07:33:08.916Z,55.20
2022-08-03T07:35:56.005Z,55.30
2022-08-03T07:38:36.936Z,56.10
2022-08-03T07:41:23.988Z,54.20
2022-08-03T07:44:03.940Z,53.40
2022-08-03T07:46:50.946Z,52.80
2022-08-03T07:49:32.013Z,52.00
2022-08-03T07:52:37.939Z,50.60
2022-08-03T07:55:18.037Z,49.80
2022-08-03T07:58:18.174Z,49.20
2022-08-03T08:01:02.034Z,48.50
2022-08-03T08:03:52.638Z,49.20
2022-08-03T08:06:33.264Z,49.00
2022-08-03T08:09:20.934Z,48.70
2022-08-03T08:12:00.986Z,47.80
2022-08-03T08:14:48.944Z,47.70
2022-08-03T08:17:29.010Z,47.40
2022-08-03T08:20:25.235Z,47.30
2022-08-03T08:23:38.659Z,46.80
2022-08-03T08:26:20.942Z,46.50
2022-08-03T08:29:01.059Z,46.30
2022-08-03T08:31:47.927Z,45.80
2022-08-03T08:34:28.212Z,45.10
2022-08-03T08:37:14.933Z,44.50
2022-08-03T08:39:55.015Z,44.10
2022-08-03T08:42:58.039Z,43.40
2022-08-03T08:45:40.252Z,43.10
2022-08-03T08:48:31.969Z,43.40
2022-08-03T08:51:19.955Z,43.00
2022-08-03T08:54:09.415Z,42.70
2022-08-03T08:56:50.928Z,42.10
2022-08-03T08:59:47.978Z,41.60
2022-08-03T09:02:30.007Z,41.30
2022-08-03T09:05:35.743Z,41.30
2022-08-03T09:08:21.085Z,41.00
2022-08-03T09:11:08.954Z,41.10
2022-08-03T09:13:58.946Z,41.00
2022-08-03T09:17:03.067Z,41.00
2022-08-03T09:19:42.953Z,40.70
2022-08-03T09:22:54.871Z,40.70
2022-08-03T09:25:46.962Z,40.30
2022-08-03T09:29:01.492Z,40.50
2022-08-03T09:31:46.217Z,40.50
2022-08-03T09:34:34.957Z,40.30
2022-08-03T09:37:21.094Z,40.20
2022-08-03T09:40:43.971Z,40.00
2022-08-03T09:43:31.021Z,39.90
2022-08-03T09:46:13.969Z,39.50
2022-08-03T09:48:54.518Z,39.50
2022-08-03T09:52:33.116Z,39.70
2022-08-03T09:54:40.965Z,39.90
2022-08-03T09:57:29.977Z,40.00
2022-08-03T10:00:15.144Z,40.20
2022-08-03T10:03:11.999Z,40.30
2022-08-03T10:05:56.087Z,40.10
2022-08-03T10:08:45.961Z,39.80
2022-08-03T10:11:41.760Z,39.60
2022-08-03T10:14:29.956Z,39.50
2022-08-03T10:17:10.139Z,39.50
2022-08-03T10:19:56.977Z,39.80
2022-08-03T10:22:41.151Z,39.70
2022-08-03T10:25:33.015Z,39.60
2022-08-03T10:28:15.019Z,39.20
2022-08-03T10:31:02.982Z,39.00
2022-08-03T10:33:49.794Z,38.90
2022-08-03T10:36:41.000Z,38.60
2022-08-03T10:39:31.982Z,38.30
2022-08-03T10:42:26.415Z,38.60
2022-08-03T10:45:19.991Z,38.60
2022-08-03T10:48:03.125Z,38.60
2022-08-03T10:50:50.995Z,38.50
2022-08-03T10:53:55.427Z,38.90
2022-08-03T10:57:04.134Z,38.70
2022-08-03T10:59:54.033Z,38.40
2022-08-03T11:03:20.986Z,38.80
2022-08-03T11:06:37.583Z,39.00
2022-08-03T11:09:25.068Z,38.90
2022-08-03T11:12:15.977Z,38.90
2022-08-03T11:14:58.899Z,38.90
2022-08-03T11:17:55.813Z,38.70
2022-08-03T11:20:57.698Z,38.90
2022-08-03T11:24:04.442Z,39.30
2022-08-03T11:27:30.977Z,39.20
2022-08-03T11:30:27.748Z,39.70
2022-08-03T11:33:07.978Z,39.40
2022-08-03T11:36:09.056Z,39.50
2022-08-03T11:39:21.989Z,39.40
2022-08-03T11:42:36.000Z,39.10
2022-08-03T11:45:22.998Z,39.20
2022-08-03T11:48:10.008Z,39.50
2022-08-03T11:50:56.989Z,39.90
2022-08-03T11:53:41.962Z,39.80
2022-08-03T11:56:30.008Z,39.90
2022-08-03T11:59:21.564Z,39.80
2022-08-03T12:02:19.063Z,39.90
2022-08-03T12:05:07.985Z,40.00
2022-08-03T12:08:04.849Z,40.30
2022-08-03T12:10:48.072Z,40.20
2022-08-03T12:14:28.932Z,40.30
2022-08-03T12:16:45.204Z,40.20
2022-08-03T12:19:31.995Z,40.10
2022-08-03T12:22:12.095Z,39.80
2022-08-03T12:24:58.993Z,39.50
2022-08-03T12:27:39.070Z,39.80
2022-08-03T12:30:27.009Z,39.80
2022-08-03T12:33:25.134Z,39.80
2022-08-03T12:36:14.015Z,40.10
2022-08-03T12:39:03.132Z,40.40
2022-08-03T12:41:50.014Z,40.60
2022-08-03T12:44:41.286Z,40.50
2022-08-03T12:47:28.021Z,40.80
2022-08-03T12:50:08.080Z,40.80
2022-08-03T12:52:55.206Z,40.70
2022-08-03T12:55:57.521Z,40.70
2022-08-03T12:58:43.019Z,40.90
2022-08-03T13:01:24.453Z,40.60
2022-08-03T13:04:17.959Z,40.80
2022-08-03T13:07:14.600Z,41.00
2022-08-03T13:10:08.053Z,41.30
2022-08-03T13:13:05.031Z,41.50
2022-08-03T13:15:47.771Z,41.30
2022-08-03T13:18:35.043Z,41.00
2022-08-03T13:21:23.160Z,40.90
2022-08-03T13:24:03.013Z,41.20
2022-08-03T13:26:50.022Z,41.40
2022-08-03T13:29:37.022Z,41.20
2022-08-03T13:32:24.118Z,41.20
2022-08-03T13:35:04.028Z,41.30
2022-08-03T13:37:51.128Z,41.30
2022-08-03T13:40:32.637Z,41.50
2022-08-03T13:43:37.009Z,41.70
2022-08-03T13:46:24.121Z,42.00
2022-08-03T13:49:04.438Z,42.30
2022-08-03T13:51:51.041Z,42.90
2022-08-03T13:54:31.170Z,42.80
2022-08-03T13:58:04.432Z,43.00
2022-08-03T14:00:27.296Z,42.90
2022-08-03T14:03:16.036Z,42.90
2022-08-03T14:05:56.098Z,42.90
2022-08-03T14:08:43.033Z,42.70
2022-08-03T14:12:06.882Z,42.90
2022-08-03T14:14:31.509Z,42.60
2022-08-03T14:17:18.418Z,42.60
2022-08-03T14:20:09.509Z,42.40
2022-08-03T14:23:06.029Z,42.60
2022-08-03T14:25:53.255Z,43.10
2022-08-03T14:28:33.040Z,43.60
2022-08-03T14:32:09.805Z,43.60
2022-08-03T14:34:34.038Z,44.00
2022-08-03T14:37:14.145Z,43.70
2022-08-03T14:40:01.516Z,44.10
2022-08-03T14:42:41.626Z,44.50
2022-08-03T14:45:29.436Z,44.50
2022-08-03T14:50:28.475Z,44.70
2022-08-03T14:51:18.751Z,44.70
2022-08-03T14:54:05.489Z,44.60
2022-08-03T14:56:59.330Z,44.60
2022-08-03T14:59:56.105Z,44.80
2022-08-03T15:02:45.554Z,44.80
2022-08-03T15:05:26.315Z,44.70
2022-08-03T15:08:14.303Z,44.70
2022-08-03T15:11:02.875Z,44.80
2022-08-03T15:13:46.272Z,44.80
2022-08-03T15:16:33.499Z,44.90
2022-08-03T15:20:02.164Z,44.90
2022-08-03T15:22:25.457Z,45.40
2022-08-03T15:26:29.292Z,45.90
2022-08-03T15:28:23.023Z,46.20
2022-08-03T15:31:04.594Z,46.30
2022-08-03T15:33:51.420Z,46.30
2022-08-03T15:36:31.432Z,46.40
2022-08-03T15:39:18.511Z,46.50
2022-08-03T15:42:05.435Z,46.60
2022-08-03T15:44:52.787Z,46.50
2022-08-03T15:47:35.495Z,46.40
2022-08-03T15:50:16.489Z,46.20
2022-08-03T15:53:04.296Z,46.20
2022-08-03T15:55:51.563Z,46.00
2022-08-03T15:59:09.396Z,46.20
2022-08-03T16:01:38.611Z,46.00
2022-08-03T16:04:28.450Z,46.00
2022-08-03T16:07:15.058Z,46.00
2022-08-03T16:09:55.129Z,46.00
2022-08-03T16:12:42.058Z,45.90
2022-08-03T16:15:22.163Z,45.90
2022-08-03T16:18:09.158Z,46.10
2022-08-03T16:20:49.261Z,46.20
2022-08-03T16:23:36.062Z,46.10
2022-08-03T16:26:18.101Z,46.10
2022-08-03T16:29:05.063Z,46.00
2022-08-03T16:32:09.322Z,46.00
2022-08-03T16:34:56.084Z,45.80
2022-08-03T16:37:38.724Z,45.80
2022-08-03T16:40:26.113Z,45.80
2022-08-03T16:43:29.213Z,45.80
2022-08-03T16:46:16.080Z,45.80
2022-08-03T16:49:03.073Z,45.60
2022-08-03T16:51:50.369Z,45.60
2022-08-03T16:54:37.222Z,45.60
2022-08-03T16:57:55.963Z,45.70
2022-08-03T17:00:33.587Z,45.70
2022-08-03T17:03:26.120Z,46.70
2022-08-03T17:06:06.056Z,45.60
2022-08-03T17:08:56.156Z,45.70
2022-08-03T17:11:46.723Z,45.70
2022-08-03T17:14:29.449Z,45.90
2022-08-03T17:17:19.077Z,45.90
2022-08-03T17:20:00.619Z,46.00
2022-08-03T17:22:53.096Z,46.20
2022-08-03T17:26:02.256Z,46.30
2022-08-03T17:28:56.512Z,46.30
2022-08-03T17:31:46.678Z,46.30
2022-08-03T17:34:36.094Z,46.50
2022-08-03T17:37:50.061Z,46.50
2022-08-03T17:40:23.209Z,46.50
2022-08-03T17:43:44.351Z,46.70
2022-08-03T17:46:12.094Z,46.70
2022-08-03T17:49:00.085Z,46.70
2022-08-03T17:51:58.145Z,46.70
2022-08-03T17:55:56.628Z,46.90
2022-08-03T17:58:02.024Z,46.90
2022-08-03T18:02:00.245Z,46.80
2022-08-03T18:04:19.062Z,47.00
2022-08-03T18:07:11.845Z,47.00
2022-08-03T18:10:06.274Z,47.10
2022-08-03T18:12:57.499Z,47.10
2022-08-03T18:15:54.092Z,47.20
2022-08-03T18:18:43.247Z,47.20
2022-08-03T18:22:02.118Z,48.30
2022-08-03T18:24:36.098Z,47.30
2022-08-03T18:27:45.405Z,47.30
2022-08-03T18:30:27.566Z,47.30
2022-08-03T18:34:32.194Z,47.40
2022-08-03T18:36:30.148Z,47.50
2022-08-03T18:39:19.641Z,47.50
2022-08-03T18:41:59.088Z,47.60
2022-08-03T18:44:56.144Z,47.70
2022-08-03T18:48:11.097Z,47.80
2022-08-03T18:51:10.145Z,47.90
2022-08-03T18:54:10.093Z,47.80
2022-08-03T18:57:10.162Z,47.80
2022-08-03T19:00:10.567Z,47.80
2022-08-03T19:02:55.162Z,47.90
2022-08-03T19:06:20.461Z,47.90
2022-08-03T19:09:13.049Z,47.90
2022-08-03T19:12:12.363Z,47.90
2022-08-03T19:15:12.351Z,48.00
2022-08-03T19:18:00.108Z,48.10
2022-08-03T19:20:47.153Z,48.10
2022-08-03T19:23:34.248Z,48.20
2022-08-03T19:26:30.149Z,48.30
2022-08-03T19:29:17.186Z,48.30
2022-08-03T19:31:59.746Z,48.30
2022-08-03T19:34:47.141Z,49.30
2022-08-03T19:37:33.166Z,48.30
2022-08-03T19:40:26.095Z,48.30
2022-08-03T19:43:53.275Z,48.30
2022-08-03T19:46:59.103Z,48.30
2022-08-03T19:50:06.067Z,48.40
2022-08-03T19:53:00.583Z,48.40
2022-08-03T19:55:48.780Z,48.40
2022-08-03T19:58:40.137Z,48.50
2022-08-03T20:01:28.278Z,48.50
2022-08-03T20:04:08.747Z,48.50
2022-08-03T20:06:56.168Z,48.60
2022-08-03T20:09:38.786Z,48.50
2022-08-03T20:12:34.403Z,48.60
2022-08-03T20:15:22.413Z,48.60
2022-08-03T20:18:18.112Z,48.60
2022-08-03T20:21:14.731Z,48.70
2022-08-03T20:24:24.720Z,48.80
2022-08-03T20:27:13.161Z,48.70
2022-08-03T20:30:07.249Z,48.70
2022-08-03T20:32:54.115Z,48.80
2022-08-03T20:35:41.803Z,48.80
2022-08-03T20:38:27.235Z,48.80
2022-08-03T20:41:14.145Z,48.80
2022-08-03T20:44:01.759Z,48.80
2022-08-03T20:46:53.138Z,48.80
2022-08-03T20:49:46.595Z,48.90
2022-08-03T20:52:33.136Z,48.90
2022-08-03T20:55:47.740Z,48.90
2022-08-03T20:58:21.122Z,49.10
2022-08-03T21:01:17.131Z,49.10
2022-08-03T21:04:16.197Z,49.20
2022-08-03T21:07:16.397Z,49.20
2022-08-03T21:10:01.090Z,49.30
2022-08-03T21:12:54.119Z,49.40
2022-08-03T21:16:05.384Z,49.40
2022-08-03T21:18:44.122Z,49.50
2022-08-03T21:21:29.704Z,49.40
2022-08-03T21:24:17.140Z,49.40
2022-08-03T21:26:58.231Z,49.40
2022-08-03T21:29:53.373Z,49.40
2022-08-03T21:32:42.123Z,49.40
2022-08-03T21:35:22.533Z,49.60
2022-08-03T21:38:29.757Z,50.50
2022-08-03T21:41:10.801Z,49.60
2022-08-03T21:43:57.155Z,49.60
2022-08-03T21:46:42.243Z,49.60
2022-08-03T21:50:07.810Z,49.70
2022-08-03T21:52:40.145Z,49.80
2022-08-03T21:55:39.128Z,50.70
2022-08-03T21:58:32.170Z,49.80
2022-08-03T22:01:13.134Z,49.80
2022-08-03T22:04:02.124Z,49.80
2022-08-03T22:06:51.277Z,49.90
2022-08-03T22:09:31.133Z,50.10
2022-08-03T22:12:18.194Z,50.10
2022-08-03T22:15:02.148Z,50.30
2022-08-03T22:17:55.757Z,50.40
2022-08-03T22:20:38.139Z,50.60
2022-08-03T22:23:27.240Z,50.70
2022-08-03T22:26:11.148Z,51.00
2022-08-03T22:28:58.246Z,51.00
2022-08-03T22:31:58.684Z,51.10
2022-08-03T22:34:49.236Z,51.20
2022-08-03T22:37:35.147Z,51.40
2022-08-03T22:40:23.209Z,51.40
2022-08-03T22:43:19.142Z,51.50
2022-08-03T22:46:14.394Z,51.60
2022-08-03T22:48:58.196Z,51.50
2022-08-03T22:51:47.153Z,51.70
2022-08-03T22:54:30.498Z,51.80
2022-08-03T22:57:17.143Z,51.80
2022-08-03T23:00:04.139Z,51.90
2022-08-03T23:02:54.230Z,51.90
2022-08-03T23:06:00.840Z,52.00
2022-08-03T23:08:45.146Z,52.00
2022-08-03T23:11:25.222Z,52.10
2022-08-03T23:14:18.136Z,52.10
2022-08-03T23:17:00.717Z,52.20
2022-08-03T23:19:50.152Z,52.20
2022-08-03T23:22:31.199Z,52.30
2022-08-03T23:25:18.162Z,53.30
2022-08-03T23:28:05.319Z,53.40
2022-08-03T23:30:56.165Z,52.50
2022-08-03T23:33:37.220Z,52.70
2022-08-03T23:36:30.591Z,52.60
2022-08-03T23:39:13.264Z,52.80
2022-08-03T23:42:00.138Z,52.70
2022-08-03T23:44:49.230Z,52.90
2022-08-03T23:47:46.867Z,52.90
2022-08-03T23:50:32.462Z,53.00
2022-08-03T23:53:49.162Z,53.20
2022-08-03T23:57:07.699Z,53.20
